Time;durP1;ratioP1;P1;durP2;ratioP2;P2;SDS_P1;SDS_P2;PMS_P1;PMS_P2;Temp;Humidity;BMP_temperature;BMP_pressure;BME280_temperature;BME280_humidity;BME280_pressure;Samples;Min_cycle;Max_cycle;Signal;HPM_P1;HPM_P2
2023/08/19 00:00:33;;;;;;;8.30;7.50;;;;;;;20.75;95.24;98102.40;107016;1275;25337;-78
2023/08/19 00:03:21;;;;;;;12.00;10.80;;;;;;;20.97;94.73;98108.36;106950;1275;22536;-77
2023/08/19 00:05:50;;;;;;;16.50;13.30;;;;;;;21.01;92.57;98106.49;106962;1275;22694;-77
2023/08/19 00:08:19;;;;;;;14.70;11.80;;;;;;;20.98;91.59;98109.02;106981;1275;25343;-78
2023/08/19 00:10:47;;;;;;;13.50;12.10;;;;;;;20.79;90.57;98103.88;107008;1275;22688;-76
2023/08/19 00:13:15;;;;;;;11.60;10.30;;;;;;;20.59;90.33;98099.71;106973;1275;24445;-77
2023/08/19 00:15:43;;;;;;;10.30;9.10;;;;;;;20.48;91.08;98105.63;106973;1275;22601;-77
2023/08/19 00:18:11;;;;;;;11.50;10.30;;;;;;;20.54;93.64;98100.06;106985;1275;22609;-77
2023/08/19 00:20:39;;;;;;;11.30;8.80;;;;;;;20.71;94.51;98097.39;106972;1275;25475;-78
2023/08/19 00:23:07;;;;;;;9.70;8.80;;;;;;;20.85;94.84;98091.55;107360;1275;23004;-78
2023/08/19 00:25:35;;;;;;;9.80;8.20;;;;;;;20.96;94.00;98097.48;107375;1275;22564;-78
2023/08/19 00:28:04;;;;;;;9.80;8.40;;;;;;;21.03;94.30;98095.17;107190;1275;224010;-79
2023/08/19 00:30:32;;;;;;;11.00;9.20;;;;;;;21.13;94.47;98090.11;107368;1275;25522;-79
2023/08/19 00:33:00;;;;;;;11.50;8.40;;;;;;;21.10;91.80;98094.52;107356;1275;22560;-78
2023/08/19 00:35:28;;;;;;;10.50;9.10;;;;;;;21.01;92.37;98092.86;107155;1275;25498;-78
2023/08/19 00:37:58;;;;;;;10.40;9.30;;;;;;;21.14;94.38;98087.08;107355;1275;22632;-78
2023/08/19 00:40:27;;;;;;;9.30;8.40;;;;;;;21.28;93.99;98085.85;107467;1275;22727;-78
2023/08/19 00:42:55;;;;;;;11.60;10.50;;;;;;;21.36;93.03;98083.80;107381;1275;22588;-78
2023/08/19 00:45:23;;;;;;;12.50;10.60;;;;;;;21.26;90.84;98083.77;107026;1275;24111;-78
2023/08/19 00:47:51;;;;;;;11.50;10.40;;;;;;;21.12;90.83;98081.73;106873;1275;22879;-79
2023/08/19 00:50:20;;;;;;;12.60;10.50;;;;;;;20.96;90.37;98079.94;107057;1275;22677;-80
2023/08/19 00:52:50;;;;;;;12.20;11.10;;;;;;;20.66;89.96;98080.14;107010;1275;22792;-78
2023/08/19 00:55:18;;;;;;;14.00;11.80;;;;;;;20.34;89.73;98074.05;106980;1275;25495;-80
2023/08/19 00:57:47;;;;;;;14.30;13.00;;;;;;;20.04;89.69;98081.23;107363;1275;27810;-78
2023/08/19 01:00:15;;;;;;;14.10;12.70;;;;;;;19.80;90.38;98078.04;106844;1275;22530;-78
2023/08/19 01:02:43;;;;;;;13.40;12.10;;;;;;;19.69;91.11;98077.46;106981;1275;22538;-79
2023/08/19 01:05:11;;;;;;;12.50;11.30;;;;;;;19.66;91.73;98074.09;107260;1262;22724;-79
2023/08/19 01:07:54;;;;;;;15.30;12.30;;;;;;;19.72;94.84;98074.02;107244;1259;22536;-79
2023/08/19 01:10:47;;;;;;;12.50;11.30;;;;;;;20.03;96.94;98073.21;107427;1275;22697;-80
2023/08/19 01:13:16;;;;;;;13.60;12.10;;;;;;;20.25;94.08;98075.67;106975;1275;22626;-78
2023/08/19 01:15:52;;;;;;;13.60;10.80;;;;;;;20.09;91.95;98078.93;106967;1275;22633;-78
2023/08/19 01:18:23;;;;;;;9.90;9.00;;;;;;;20.06;94.64;98075.33;106688;1275;22922;-78
2023/08/19 01:20:54;;;;;;;11.10;9.00;;;;;;;20.24;97.08;98074.72;107031;1275;24438;-78
2023/08/19 01:23:38;;;;;;;9.50;8.60;;;;;;;20.45;96.77;98074.93;106998;1275;22541;-78
2023/08/19 01:26:06;;;;;;;13.10;10.50;;;;;;;20.63;95.90;98077.12;107006;1253;24373;-76
2023/08/19 01:28:34;;;;;;;12.10;10.90;;;;;;;20.78;95.67;98082.02;106965;1275;22647;-77
2023/08/19 01:31:03;;;;;;;13.80;10.90;;;;;;;20.90;94.53;98081.70;107027;1273;24374;-77
2023/08/19 01:33:32;;;;;;;9.60;8.60;;;;;;;20.94;93.60;98083.35;106824;1275;23289;-77
2023/08/19 01:36:20;;;;;;;13.50;12.10;;;;;;;20.99;93.93;98083.42;106921;1256;22525;-78
2023/08/19 01:38:52;;;;;;;12.00;10.80;;;;;;;20.98;93.03;98082.58;106976;1275;22520;-78
2023/08/19 01:41:22;;;;;;;11.60;10.50;;;;;;;20.99;93.45;98080.92;106747;1275;22643;-79
2023/08/19 01:43:51;;;;;;;11.90;10.70;;;;;;;20.96;92.53;98080.56;107520;1275;23276;-77
2023/08/19 01:46:20;;;;;;;13.20;11.90;;;;;;;20.83;91.40;98081.42;106934;1275;24571;-78
2023/08/19 01:48:48;;;;;;;12.80;11.60;;;;;;;20.55;90.61;98083.73;106941;1275;22637;-79
2023/08/19 01:51:16;;;;;;;13.80;12.50;;;;;;;20.39;91.83;98089.19;107418;1275;25435;-79
2023/08/19 01:53:44;;;;;;;14.50;12.90;;;;;;;20.30;91.67;98090.09;107157;1275;22775;-79
2023/08/19 01:56:12;;;;;;;13.50;12.10;;;;;;;20.02;91.79;98090.17;107190;1275;23933;-77
2023/08/19 01:58:40;;;;;;;13.70;11.40;;;;;;;19.77;92.26;98085.07;106729;1275;22641;-78
2023/08/19 02:01:12;;;;;;;13.60;11.70;;;;;;;19.60;93.14;98082.44;106706;1275;24264;-77
2023/08/19 02:03:40;;;;;;;14.50;12.40;;;;;;;19.55;93.69;98079.04;106962;1275;24364;-78
2023/08/19 02:06:08;;;;;;;12.60;9.80;;;;;;;19.62;94.60;98081.48;106998;1275;24049;-78
2023/08/19 02:08:36;;;;;;;13.60;12.30;;;;;;;19.69;93.65;98081.84;106822;1274;25366;-78
2023/08/19 02:11:04;;;;;;;15.00;12.30;;;;;;;19.58;93.39;98082.95;107364;1275;22536;-78
2023/08/19 02:13:32;;;;;;;13.70;12.40;;;;;;;19.37;94.97;98086.40;107205;1275;22668;-78
2023/08/19 02:16:00;;;;;;;27.60;24.80;;;;;;;19.10;95.80;98091.89;107343;1275;24229;-76
2023/08/19 02:18:28;;;;;;;23.30;21.40;;;;;;;18.93;97.67;98095.96;106855;1275;22551;-77
2023/08/19 02:20:56;;;;;;;15.70;14.20;;;;;;;18.93;99.19;98091.42;106955;1275;22548;-77
2023/08/19 02:23:24;;;;;;;14.70;12.80;;;;;;;19.13;99.89;98091.79;106693;1275;22637;-77
2023/08/19 02:25:53;;;;;;;14.50;12.30;;;;;;;19.34;100.00;98091.10;106962;1275;22650;-76
2023/08/19 02:28:21;;;;;;;15.00;13.70;;;;;;;19.49;98.57;98090.54;106794;1275;24227;-76
2023/08/19 02:30:49;;;;;;;13.90;12.60;;;;;;;19.57;97.03;98084.08;106804;1275;22531;-78
2023/08/19 02:33:17;;;;;;;18.10;16.40;;;;;;;19.63;98.09;98091.13;107034;1252;24241;-77
2023/08/19 02:35:50;;;;;;;18.10;15.90;;;;;;;19.60;95.97;98096.97;106759;1252;22770;-78
2023/08/19 02:38:18;;;;;;;16.50;14.70;;;;;;;19.41;95.56;98101.35;106943;1275;22563;-78
2023/08/19 02:40:50;;;;;;;16.00;14.50;;;;;;;19.21;96.34;98100.20;107378;1275;24100;-76
2023/08/19 02:43:18;;;;;;;15.10;13.60;;;;;;;19.15;97.71;98096.77;107106;1275;25487;-76
2023/08/19 02:45:47;;;;;;;14.40;12.90;;;;;;;19.33;99.48;98098.86;106996;1275;22641;-77
2023/08/19 02:48:16;;;;;;;15.40;13.90;;;;;;;19.49;98.61;98101.69;106983;1275;23893;-77
2023/08/19 02:50:44;;;;;;;15.80;14.30;;;;;;;19.55;96.82;98100.52;106943;1270;22771;-77
2023/08/19 02:53:12;;;;;;;13.90;12.40;;;;;;;19.43;95.95;98099.67;106993;1275;22649;-77
2023/08/19 02:55:41;;;;;;;15.30;13.60;;;;;;;19.28;95.96;98097.57;107404;1275;22645;-76
2023/08/19 02:58:09;;;;;;;15.80;14.40;;;;;;;19.13;95.60;98100.54;106927;1266;22982;-77
2023/08/19 03:00:37;;;;;;;16.30;14.40;;;;;;;18.97;95.58;98105.41;107031;1275;22540;-77
2023/08/19 03:03:06;;;;;;;14.10;12.80;;;;;;;18.86;96.74;98104.42;106972;1275;22651;-77
2023/08/19 03:05:37;;;;;;;15.30;13.70;;;;;;;18.93;97.87;98111.33;106954;1275;22566;-77
2023/08/19 03:08:07;;;;;;;12.20;11.10;;;;;;;18.97;97.98;98115.95;106951;1275;25498;-77
2023/08/19 03:10:40;;;;;;;11.30;10.20;;;;;;;19.14;99.63;98114.30;107207;1275;24324;-77
2023/08/19 03:13:09;;;;;;;11.20;9.50;;;;;;;19.36;100.00;98110.65;107039;1275;22488;-77
2023/08/19 03:15:38;;;;;;;14.20;12.80;;;;;;;19.60;100.00;98113.37;107184;1275;22535;-81
2023/08/19 03:18:06;;;;;;;13.70;12.40;;;;;;;19.63;97.59;98118.14;107381;1275;22651;-81
2023/08/19 03:20:34;;;;;;;13.10;11.80;;;;;;;19.43;96.49;98120.61;107254;1275;22525;-80
2023/08/19 03:23:03;;;;;;;13.50;12.10;;;;;;;19.38;96.69;98124.69;107402;1275;22633;-80
2023/08/19 03:25:31;;;;;;;14.20;12.80;;;;;;;19.16;95.48;98126.91;107339;1275;23371;-81
2023/08/19 03:28:00;;;;;;;12.60;11.30;;;;;;;18.89;96.20;98126.36;107177;1275;25553;-79
2023/08/19 03:30:28;;;;;;;12.60;11.00;;;;;;;18.80;96.60;98130.71;107434;1275;24324;-78
2023/08/19 03:32:56;;;;;;;11.30;10.20;;;;;;;18.78;98.52;98125.89;107336;1275;22687;-79
2023/08/19 03:35:25;;;;;;;12.50;11.30;;;;;;;19.00;99.39;98130.16;107386;1275;24350;-80
2023/08/19 03:37:53;;;;;;;11.50;10.20;;;;;;;19.01;97.61;98131.82;107459;1275;23408;-80
2023/08/19 03:40:21;;;;;;;10.80;9.80;;;;;;;19.08;99.07;98130.23;107394;1275;22583;-80
2023/08/19 03:42:49;;;;;;;11.70;8.70;;;;;;;19.25;98.74;98128.52;107376;1275;24497;-81
2023/08/19 03:45:17;;;;;;;15.40;9.80;;;;;;;19.37;98.51;98128.17;107433;1275;25455;-80
2023/08/19 03:47:45;;;;;;;11.00;9.60;;;;;;;19.48;99.37;98127.05;107348;1275;22569;-81
2023/08/19 03:50:14;;;;;;;9.50;8.60;;;;;;;19.62;98.83;98125.52;107418;1275;25340;-81
2023/08/19 03:52:41;;;;;;;12.80;9.80;;;;;;;19.70;98.69;98123.95;107332;1275;24226;-80
2023/08/19 03:55:10;;;;;;;16.70;10.30;;;;;;;19.78;97.98;98119.86;107369;1275;22647;-80
2023/08/19 03:57:38;;;;;;;12.40;10.20;;;;;;;19.72;96.62;98119.63;107249;1275;22553;-80
2023/08/19 04:00:06;;;;;;;9.30;8.40;;;;;;;19.68;96.72;98123.45;107251;1275;22531;-79
2023/08/19 04:02:40;;;;;;;13.70;10.60;;;;;;;19.67;96.55;98125.14;107425;1275;22524;-79
2023/08/19 04:05:10;;;;;;;14.00;10.10;;;;;;;19.52;96.08;98124.89;107474;1275;25221;-79
2023/08/19 04:07:39;;;;;;;14.10;12.40;;;;;;;19.34;96.23;98129.17;107224;1253;25468;-79
2023/08/19 04:10:08;;;;;;;14.50;12.30;;;;;;;19.09;95.73;98129.64;107407;1275;25492;-78
2023/08/19 04:12:36;;;;;;;12.00;10.70;;;;;;;18.89;96.03;98129.48;107566;1275;24274;-79
2023/08/19 04:15:05;;;;;;;11.20;9.80;;;;;;;18.82;97.09;98130.83;107261;1275;22651;-80
2023/08/19 04:17:34;;;;;;;11.90;8.50;;;;;;;18.92;98.83;98127.44;107267;1275;24384;-80
2023/08/19 04:20:08;;;;;;;11.40;10.20;;;;;;;19.13;99.49;98128.86;107359;1275;25424;-80
2023/08/19 04:22:40;;;;;;;14.10;10.10;;;;;;;19.25;98.11;98128.89;107333;1275;23342;-81
2023/08/19 04:25:09;;;;;;;11.70;10.50;;;;;;;19.26;97.18;98129.20;107264;1275;22552;-80
2023/08/19 04:27:36;;;;;;;11.60;10.40;;;;;;;19.28;96.72;98131.70;107427;1275;24369;-80
2023/08/19 04:30:05;;;;;;;11.70;10.20;;;;;;;19.17;96.46;98137.17;107195;1275;22792;-80
2023/08/19 04:32:34;;;;;;;11.50;10.20;;;;;;;19.01;96.56;98135.64;107149;1275;22739;-81
2023/08/19 04:35:03;;;;;;;10.20;9.20;;;;;;;18.91;96.67;98133.88;107344;1275;22638;-80
2023/08/19 04:37:31;;;;;;;10.80;9.60;;;;;;;18.91;97.30;98133.33;107327;1275;22541;-80
2023/08/19 04:40:03;;;;;;;10.80;8.80;;;;;;;19.04;98.97;98136.51;107516;1275;22632;-80
2023/08/19 04:42:37;;;;;;;12.40;10.60;;;;;;;19.31;99.89;98132.61;107438;1275;22526;-80
2023/08/19 04:45:06;;;;;;;12.00;10.90;;;;;;;19.42;97.83;98133.14;107440;1275;22510;-80
2023/08/19 04:47:35;;;;;;;12.90;11.60;;;;;;;19.35;97.48;98131.47;107406;1275;24375;-79
2023/08/19 04:50:08;;;;;;;16.30;12.90;;;;;;;19.26;97.85;98129.54;107377;1275;23159;-80
2023/08/19 04:52:37;;;;;;;8.90;7.90;;;;;;;19.26;98.71;98128.77;107441;1252;22545;-80
2023/08/19 04:55:09;;;;;;;10.10;9.00;;;;;;;19.48;100.00;98127.69;107382;1275;22517;-79
2023/08/19 04:57:38;;;;;;;13.80;12.40;;;;;;;19.76;100.00;98128.40;107000;1275;24263;-78
2023/08/19 05:00:08;;;;;;;12.70;11.40;;;;;;;19.89;99.13;98126.61;107906;1275;23169;-79
2023/08/19 05:02:36;;;;;;;12.90;11.60;;;;;;;19.96;98.35;98127.17;106825;1275;24200;-79
2023/08/19 05:05:05;;;;;;;12.80;11.50;;;;;;;20.00;98.04;98125.45;107082;1275;22521;-79
2023/08/19 05:07:33;;;;;;;13.60;11.70;;;;;;;20.05;98.53;98127.67;107060;1275;22523;-79
2023/08/19 05:10:02;;;;;;;16.10;14.20;;;;;;;20.25;99.87;98125.02;106910;1275;22557;-80
2023/08/19 05:12:30;;;;;;;16.40;13.00;;;;;;;20.47;99.67;98124.16;106797;1275;23926;-80
2023/08/19 05:14:58;;;;;;;12.20;9.80;;;;;;;20.57;98.33;98127.99;107389;1275;25329;-80
2023/08/19 05:17:27;;;;;;;12.90;11.40;;;;;;;20.62;98.44;98125.59;107473;1275;22637;-80
2023/08/19 05:19:56;;;;;;;26.90;18.00;;;;;;;20.79;98.81;98130.46;107156;1275;22781;-80
2023/08/19 05:22:24;;;;;;;22.80;15.30;;;;;;;20.96;98.29;98135.11;107423;1275;22528;-80
2023/08/19 05:24:52;;;;;;;26.20;16.70;;;;;;;21.08;97.89;98140.99;107248;1275;22564;-81
2023/08/19 05:27:21;;;;;;;26.30;19.30;;;;;;;21.19;97.65;98141.66;107155;1275;22652;-80
2023/08/19 05:29:49;;;;;;;10.50;8.70;;;;;;;21.23;97.53;98142.77;107469;1275;22539;-81
2023/08/19 05:32:17;;;;;;;18.10;14.20;;;;;;;21.34;97.95;98142.34;107314;1275;24193;-81
2023/08/19 05:34:45;;;;;;;17.50;14.40;;;;;;;21.47;97.49;98147.28;107224;1275;22528;-81
2023/08/19 05:37:13;;;;;;;13.40;9.80;;;;;;;21.60;97.19;98148.85;107176;1275;27048;-81
2023/08/19 05:39:41;;;;;;;9.50;7.90;;;;;;;21.71;96.89;98149.73;107204;1274;22553;-81
2023/08/19 05:42:11;;;;;;;10.60;7.20;;;;;;;21.82;96.85;98150.71;107292;1275;22726;-81
2023/08/19 05:44:40;;;;;;;11.80;10.10;;;;;;;21.97;96.64;98150.64;107308;1275;24057;-81
2023/08/19 05:47:09;;;;;;;13.50;10.30;;;;;;;21.98;96.17;98149.88;107402;1275;22829;-79
2023/08/19 05:49:37;;;;;;;10.50;9.40;;;;;;;22.00;96.19;98147.79;107428;1275;22814;-79
2023/08/19 05:52:05;;;;;;;9.80;7.30;;;;;;;22.06;96.04;98146.23;107468;1275;23419;-80
2023/08/19 05:54:33;;;;;;;10.80;7.80;;;;;;;22.17;96.26;98143.73;106943;1275;22645;-78
2023/08/19 05:57:01;;;;;;;11.40;8.90;;;;;;;22.27;95.77;98143.98;106944;1275;22521;-79
2023/08/19 05:59:29;;;;;;;11.20;10.00;;;;;;;22.31;95.40;98147.95;107372;1275;22742;-79
2023/08/19 06:01:57;;;;;;;15.60;10.20;;;;;;;22.28;95.10;98149.95;107437;1275;22527;-79
2023/08/19 06:04:25;;;;;;;10.60;9.50;;;;;;;22.28;95.15;98147.91;107456;1275;22678;-80
2023/08/19 06:06:53;;;;;;;12.40;9.80;;;;;;;22.28;95.07;98150.66;107386;1275;23306;-80
2023/08/19 06:09:22;;;;;;;9.80;8.80;;;;;;;22.28;94.92;98148.38;107324;1275;22525;-80
2023/08/19 06:11:52;;;;;;;10.20;8.70;;;;;;;22.33;95.07;98154.27;107330;1275;25484;-80
2023/08/19 06:14:19;;;;;;;11.30;9.10;;;;;;;22.43;95.13;98151.50;107265;1265;22520;-80
2023/08/19 06:16:48;;;;;;;16.80;10.00;;;;;;;22.52;94.76;98151.63;106884;1276;25642;-79
2023/08/19 06:19:16;;;;;;;9.80;8.60;;;;;;;22.61;94.55;98153.71;107235;1276;22533;-79
2023/08/19 06:21:44;;;;;;;12.90;9.70;;;;;;;22.71;94.69;98155.08;107255;1276;22516;-79
2023/08/19 06:24:12;;;;;;;12.00;9.80;;;;;;;22.80;94.36;98155.52;107343;1276;22575;-79
2023/08/19 06:26:40;;;;;;;10.70;9.50;;;;;;;22.87;94.15;98157.24;107385;1276;22648;-79
2023/08/19 06:29:08;;;;;;;10.30;9.20;;;;;;;22.95;94.05;98156.42;107357;1276;22521;-78
2023/08/19 06:31:37;;;;;;;12.30;9.10;;;;;;;23.04;94.10;98156.47;107339;1276;24354;-78
2023/08/19 06:34:05;;;;;;;10.00;8.90;;;;;;;23.13;94.01;98157.59;106846;1276;22536;-78
2023/08/19 06:36:37;;;;;;;11.60;8.60;;;;;;;23.24;93.58;98158.98;107018;1276;25355;-78
2023/08/19 06:39:33;;;;;;;10.20;9.20;;;;;;;23.30;92.97;98162.48;107361;1271;23255;-80
2023/08/19 06:42:03;;;;;;;8.90;7.90;;;;;;;23.33;92.73;98166.05;106900;1263;25507;-79
2023/08/19 06:44:38;;;;;;;9.80;8.90;;;;;;;23.35;92.69;98169.45;106841;1276;22697;-81
2023/08/19 06:47:07;;;;;;;9.10;7.90;;;;;;;23.40;92.66;98171.39;107345;1275;23507;-80
2023/08/19 06:49:37;;;;;;;11.00;8.40;;;;;;;23.46;92.27;98174.52;107373;1270;22755;-81
2023/08/19 06:52:06;;;;;;;16.10;11.20;;;;;;;23.49;92.22;98174.86;107395;1275;24378;-82
2023/08/19 06:54:34;;;;;;;9.80;8.50;;;;;;;23.55;91.60;98178.38;106932;1253;24377;-80
2023/08/19 06:57:07;;;;;;;9.70;8.00;;;;;;;23.63;91.52;98178.45;107317;1275;24260;-82
2023/08/19 06:59:38;;;;;;;9.60;8.50;;;;;;;23.72;91.32;98182.25;107316;1253;24230;-80
2023/08/19 07:02:08;;;;;;;11.30;7.80;;;;;;;23.74;90.19;98182.44;107214;1272;22593;-81
2023/08/19 07:04:36;;;;;;;9.80;8.80;;;;;;;23.75;89.90;98182.13;107281;1268;22609;-81
2023/08/19 07:07:05;;;;;;;13.40;9.00;;;;;;;23.78;89.10;98181.60;106994;1275;22530;-82
2023/08/19 07:09:34;;;;;;;13.70;9.60;;;;;;;23.77;88.68;98182.94;107440;1272;22647;-81
2023/08/19 07:12:03;;;;;;;11.00;8.70;;;;;;;23.71;88.40;98171.80;107320;1272;22949;-82
2023/08/19 07:14:32;;;;;;;10.40;8.20;;;;;;;23.93;88.27;98189.05;107517;1269;22540;-82
2023/08/19 07:17:03;;;;;;;9.70;8.20;;;;;;;24.08;88.49;98192.55;107470;1272;22531;-81
2023/08/19 07:19:39;;;;;;;11.20;9.30;;;;;;;24.21;88.29;98195.88;107476;1269;22523;-79
2023/08/19 07:22:09;;;;;;;11.70;9.40;;;;;;;24.28;86.65;98197.98;107460;1275;22597;-81
2023/08/19 07:24:37;;;;;;;15.30;13.70;;;;;;;24.33;87.37;98197.30;107265;1273;23185;-79
2023/08/19 07:27:06;;;;;;;16.10;10.00;;;;;;;24.44;87.21;98203.13;107334;1275;24227;-81
2023/08/19 07:29:35;;;;;;;10.70;9.40;;;;;;;24.55;87.17;98204.41;107379;1275;22656;-79
2023/08/19 07:32:03;;;;;;;11.70;8.40;;;;;;;24.65;85.84;98202.81;106882;1269;25261;-80
2023/08/19 07:34:31;;;;;;;10.20;8.70;;;;;;;24.73;85.93;98203.80;107212;1269;22531;-79
2023/08/19 07:36:59;;;;;;;9.20;7.60;;;;;;;24.84;86.28;98202.13;107291;1259;25612;-80
2023/08/19 07:39:27;;;;;;;9.90;8.80;;;;;;;24.97;86.01;98206.20;107353;1275;23157;-80
2023/08/19 07:41:55;;;;;;;9.10;8.20;;;;;;;25.08;85.74;98200.41;107236;1275;22536;-81
2023/08/19 07:44:23;;;;;;;10.00;8.00;;;;;;;25.19;85.00;98199.63;108067;1268;23687;-80
2023/08/19 07:46:51;;;;;;;9.00;8.10;;;;;;;25.18;81.88;98201.59;107343;1275;22759;-80
2023/08/19 07:49:19;;;;;;;9.70;8.30;;;;;;;25.15;81.50;98201.58;107362;1275;25616;-81
2023/08/19 07:51:47;;;;;;;14.00;8.50;;;;;;;25.17;82.27;98204.34;107731;1275;23929;-81
2023/08/19 07:54:15;;;;;;;12.90;8.30;;;;;;;25.28;82.29;98201.48;108718;1275;22572;-81
2023/08/19 07:56:43;;;;;;;11.30;7.80;;;;;;;25.43;82.47;98203.01;107524;1275;24384;-81
2023/08/19 07:59:11;;;;;;;8.70;7.80;;;;;;;25.52;82.39;98203.52;108068;1275;22631;-79
2023/08/19 08:01:39;;;;;;;10.90;8.80;;;;;;;25.67;82.40;98203.14;109329;1275;24253;-78
2023/08/19 08:04:07;;;;;;;12.90;9.20;;;;;;;25.75;80.59;98202.52;109583;1275;22484;-80
2023/08/19 08:06:35;;;;;;;17.70;11.50;;;;;;;25.74;79.71;98204.02;108951;1275;22672;-79
2023/08/19 08:09:04;;;;;;;11.90;7.90;;;;;;;25.78;79.36;98204.18;109865;1275;22663;-81
2023/08/19 08:11:32;;;;;;;9.50;8.10;;;;;;;25.86;79.30;98209.18;108678;1275;25397;-79
2023/08/19 08:14:00;;;;;;;10.50;8.40;;;;;;;26.00;80.05;98209.52;107913;1275;23248;-80
2023/08/19 08:16:28;;;;;;;13.40;9.40;;;;;;;26.07;78.73;98210.23;107370;1275;25646;-82
2023/08/19 08:18:57;;;;;;;9.50;8.20;;;;;;;26.17;78.83;98217.01;107442;1275;22570;-80
2023/08/19 08:21:25;;;;;;;9.70;7.30;;;;;;;26.28;78.37;98217.95;107333;1275;22610;-80
2023/08/19 08:23:54;;;;;;;12.00;7.60;;;;;;;26.39;78.50;98218.19;107327;1275;22535;-80
2023/08/19 08:26:22;;;;;;;8.00;7.00;;;;;;;26.47;78.20;98219.75;107394;1258;22602;-80
2023/08/19 08:28:50;;;;;;;11.70;6.70;;;;;;;26.55;76.35;98223.72;107084;1275;22569;-81
2023/08/19 08:31:18;;;;;;;9.80;7.20;;;;;;;26.58;75.45;98225.52;107688;1275;22760;-81
2023/08/19 08:33:46;;;;;;;10.80;6.50;;;;;;;26.64;75.51;98227.95;108282;1275;25224;-82
2023/08/19 08:36:15;;;;;;;8.90;7.50;;;;;;;26.70;74.04;98229.69;108076;1275;22804;-80
2023/08/19 08:38:43;;;;;;;10.90;7.60;;;;;;;26.73;73.45;98229.77;107547;1275;26640;-82
2023/08/19 08:41:12;;;;;;;9.50;7.80;;;;;;;26.81;73.43;98236.77;107268;1275;25382;-82
2023/08/19 08:43:40;;;;;;;8.20;7.10;;;;;;;26.90;73.99;98235.88;107287;1275;22634;-82
2023/08/19 08:46:10;;;;;;;9.60;7.60;;;;;;;26.98;73.31;98231.42;107316;1275;22788;-81
2023/08/19 08:48:38;;;;;;;11.20;7.20;;;;;;;27.07;73.35;98233.46;107406;1275;24206;-81
2023/08/19 08:51:06;;;;;;;9.50;6.20;;;;;;;27.20;73.15;98234.77;107405;1275;24260;-81
2023/08/19 08:53:35;;;;;;;8.30;6.70;;;;;;;27.30;72.97;98234.17;107399;1275;24363;-80
2023/08/19 08:56:06;;;;;;;12.10;6.50;;;;;;;27.36;71.53;98233.52;107439;1275;24198;-81
2023/08/19 08:58:34;;;;;;;7.70;6.60;;;;;;;27.35;70.59;98237.55;107415;1272;24209;-82
2023/08/19 09:01:03;;;;;;;9.10;6.70;;;;;;;27.36;70.62;98231.63;107384;1275;24942;-81
2023/08/19 09:03:33;;;;;;;7.60;6.40;;;;;;;27.38;68.20;98235.73;107384;1275;23480;-82
2023/08/19 09:06:10;;;;;;;9.10;6.60;;;;;;;27.37;67.59;98232.09;107438;1275;25762;-80
2023/08/19 09:08:45;;;;;;;9.30;7.10;;;;;;;27.43;67.87;98233.73;107387;1275;22602;-82
2023/08/19 09:11:22;;;;;;;8.60;6.40;;;;;;;27.49;68.26;98230.61;107297;1275;23366;-82
2023/08/19 09:13:59;;;;;;;8.20;6.60;;;;;;;27.63;68.66;98232.19;107039;1275;25247;-82
2023/08/19 09:16:27;;;;;;;7.90;6.60;;;;;;;27.75;66.71;98228.25;107384;1275;24393;-80
2023/08/19 09:18:55;;;;;;;8.10;6.50;;;;;;;27.80;66.49;98227.99;107370;1275;25336;-80
2023/08/19 09:21:25;;;;;;;8.70;6.90;;;;;;;27.78;65.50;98227.29;107344;1275;22630;-80
2023/08/19 09:23:53;;;;;;;9.10;6.20;;;;;;;27.80;66.22;98232.67;107390;1271;24234;-78
2023/08/19 09:26:21;;;;;;;7.20;5.90;;;;;;;27.91;65.57;98234.17;107419;1275;22539;-81
2023/08/19 09:28:58;;;;;;;7.90;6.10;;;;;;;27.89;62.69;98232.61;107403;1275;23904;-80
2023/08/19 09:31:27;;;;;;;8.10;5.70;;;;;;;27.97;64.35;98235.01;107292;1275;23910;-80
2023/08/19 09:33:55;;;;;;;5.80;5.20;;;;;;;28.12;64.14;98233.08;107307;1275;25838;-80
2023/08/19 09:36:24;;;;;;;9.60;5.40;;;;;;;28.24;64.00;98229.80;107402;1275;24281;-80
2023/08/19 09:38:56;;;;;;;8.20;4.90;;;;;;;28.37;64.55;98230.09;107356;1275;24403;-80
2023/08/19 09:41:31;;;;;;;8.00;5.80;;;;;;;28.48;64.44;98233.10;107224;1275;22570;-81
2023/08/19 09:44:01;;;;;;;7.90;5.20;;;;;;;28.61;64.46;98232.83;107275;1275;25265;-81
2023/08/19 09:46:31;;;;;;;8.00;5.50;;;;;;;28.70;63.13;98233.84;107289;1275;23387;-79
2023/08/19 09:49:00;;;;;;;7.00;5.40;;;;;;;28.77;63.42;98234.48;106978;1275;26183;-79
2023/08/19 09:51:31;;;;;;;6.90;5.10;;;;;;;28.86;63.76;98234.40;106798;1275;26061;-79
2023/08/19 09:54:10;;;;;;;10.00;5.20;;;;;;;28.96;62.93;98234.42;107360;1275;22542;-80
2023/08/19 09:56:38;;;;;;;6.40;4.80;;;;;;;29.03;61.66;98231.52;107321;1275;22550;-79
2023/08/19 09:59:06;;;;;;;7.50;4.80;;;;;;;29.05;61.05;98234.67;107332;1275;25092;-79
2023/08/19 10:01:36;;;;;;;7.30;4.90;;;;;;;29.20;61.86;98228.15;107053;1256;26603;-81
2023/08/19 10:04:04;;;;;;;7.60;5.20;;;;;;;29.40;61.39;98231.15;107480;1275;22520;-80
2023/08/19 10:06:37;;;;;;;6.50;5.10;;;;;;;29.57;61.28;98233.08;107341;1275;26239;-79
2023/08/19 10:09:09;;;;;;;7.10;5.20;;;;;;;29.77;61.30;98231.77;107121;1275;22523;-80
2023/08/19 10:11:43;;;;;;;8.30;5.60;;;;;;;29.94;60.83;98230.57;107320;1275;25532;-78
2023/08/19 10:14:12;;;;;;;6.40;5.70;;;;;;;30.00;60.08;98230.08;106939;1275;22526;-79
2023/08/19 10:16:48;;;;;;;7.70;5.00;;;;;;;30.04;60.08;98231.75;107430;1268;24897;-80
2023/08/19 10:19:20;;;;;;;6.60;5.00;;;;;;;30.07;58.74;98232.02;106927;1275;22544;-79
2023/08/19 10:21:50;;;;;;;6.40;5.20;;;;;;;29.97;57.91;98226.00;107380;1275;24245;-79
2023/08/19 10:24:20;;;;;;;9.50;4.80;;;;;;;29.99;58.98;98225.58;107310;1275;24740;-80
2023/08/19 10:26:48;;;;;;;6.50;4.80;;;;;;;30.06;58.11;98221.02;107391;1275;25244;-80
2023/08/19 10:29:16;;;;;;;7.60;5.10;;;;;;;30.15;57.29;98224.13;107429;1275;22579;-80
2023/08/19 10:32:34;;;;;;;7.20;5.00;;;;;;;30.22;57.81;98221.40;107371;1275;23495;-80
2023/08/19 10:35:12;;;;;;;6.40;4.60;;;;;;;30.38;57.40;98222.98;107344;1275;22536;-80
2023/08/19 10:37:42;;;;;;;6.10;4.40;;;;;;;30.52;56.72;98221.14;107351;1275;22615;-81
2023/08/19 10:40:15;;;;;;;6.80;4.60;;;;;;;30.59;56.03;98222.92;107504;1275;22551;-80
2023/08/19 10:43:01;;;;;;;7.30;5.10;;;;;;;30.70;55.60;98224.70;107363;1270;22842;-80
2023/08/19 10:45:34;;;;;;;6.50;4.50;;;;;;;30.84;55.63;98225.83;107198;1275;25332;-79
2023/08/19 10:48:02;;;;;;;8.00;5.80;;;;;;;30.98;55.38;98228.33;107295;1275;25330;-79
2023/08/19 10:50:37;;;;;;;7.90;4.60;;;;;;;31.03;53.52;98227.05;106861;1275;22561;-79
2023/08/19 10:53:07;;;;;;;6.30;4.40;;;;;;;30.94;54.07;98223.09;107312;1275;22649;-79
2023/08/19 10:55:55;;;;;;;9.60;5.30;;;;;;;31.12;54.46;98219.14;106929;1275;24255;-79
2023/08/19 10:58:23;;;;;;;5.60;4.70;;;;;;;31.28;53.70;98216.67;107402;1268;25622;-79
2023/08/19 11:00:51;;;;;;;8.00;4.50;;;;;;;31.33;53.01;98212.11;107405;1275;24248;-80
2023/08/19 11:03:19;;;;;;;7.70;4.80;;;;;;;31.45;53.32;98209.55;106946;1275;22550;-80
2023/08/19 11:05:54;;;;;;;6.20;4.80;;;;;;;31.63;53.02;98206.88;107365;1275;22536;-80
2023/08/19 11:08:22;;;;;;;11.50;5.20;;;;;;;31.74;52.68;98204.93;107346;1275;24237;-80
2023/08/19 11:10:50;;;;;;;7.50;5.10;;;;;;;31.72;51.29;98209.60;107289;1275;25434;-78
2023/08/19 11:13:18;;;;;;;7.20;5.10;;;;;;;31.64;51.84;98213.27;107341;1275;22554;-80
2023/08/19 11:15:49;;;;;;;6.70;4.90;;;;;;;31.55;50.34;98211.75;107199;1275;25266;-79
2023/08/19 11:18:20;;;;;;;6.70;4.80;;;;;;;31.48;51.84;98208.95;107371;1269;24378;-79
2023/08/19 11:20:48;;;;;;;6.90;4.90;;;;;;;31.57;51.99;98198.64;107316;1275;22648;-79
2023/08/19 11:23:27;;;;;;;6.80;4.70;;;;;;;31.74;52.20;98194.12;107354;1275;23570;-79
2023/08/19 11:25:56;;;;;;;6.00;4.50;;;;;;;31.92;51.45;98198.34;107442;1275;23911;-78
2023/08/19 11:28:25;;;;;;;5.50;4.00;;;;;;;31.84;50.44;98193.40;106988;1275;22537;-78